Time;durP1;ratioP1;P1;durP2;ratioP2;P2;SDS_P1;SDS_P2;PMS_P1;PMS_P2;Temp;Humidity;BMP_temperature;BMP_pressure;BME280_temperature;BME280_humidity;BME280_pressure;Samples;Min_cycle;Max_cycle;Signal;HPM_P1;HPM_P2
2023/10/10 00:04:19;;;;;;;;;11.67;11.00;;;;;;;;6488943;39;9589;-55
2023/10/10 00:10:22;;;;;;;;;8.33;8.33;;;;;;;;6489471;39;9472;-55
2023/10/10 00:16:47;;;;;;;;;7.50;6.50;;;;;;;;6491213;31;8869;-57
2023/10/10 00:22:59;;;;;;;;;10.00;9.00;;;;;;;;6489977;39;8872;-55
2023/10/10 00:29:06;;;;;;;;;9.50;9.50;;;;;;;;6489576;39;8948;-57
2023/10/10 00:35:17;;;;;;;;;9.00;7.75;;;;;;;;5975104;36;10001662;-54
2023/10/10 00:41:22;;;;;;;;;8.00;8.00;;;;;;;;6309578;46;10000722;-56
2023/10/10 00:47:31;;;;;;;;;8.00;8.00;;;;;;;;6490105;39;10905;-56
2023/10/10 00:53:40;;;;;;;;;6.67;5.33;;;;;;;;6489037;39;9032;-57
2023/10/10 00:59:44;;;;;;;;;6.50;6.50;;;;;;;;6489610;39;8972;-56
2023/10/10 01:05:55;;;;;;;;;7.75;7.75;;;;;;;;6489261;39;8960;-57
2023/10/10 01:11:58;;;;;;;;;12.33;8.67;;;;;;;;6488726;39;8906;-55
2023/10/10 01:18:01;;;;;;;;;9.00;9.00;;;;;;;;6489001;39;8874;-58
2023/10/10 01:24:06;;;;;;;;;6.50;6.50;;;;;;;;6489243;39;8833;-56
2023/10/10 01:30:18;;;;;;;;;8.00;8.00;;;;;;;;6488067;39;8893;-56
2023/10/10 01:36:22;;;;;;;;;8.00;8.00;;;;;;;;6488011;46;8956;-56
2023/10/10 01:42:37;;;;;;;;;10.33;8.67;;;;;;;;6489043;39;8920;-56
2023/10/10 01:48:43;;;;;;;;;6.75;6.50;;;;;;;;6488338;39;8862;-56
2023/10/10 01:54:53;;;;;;;;;9.00;8.00;;;;;;;;6488833;39;8882;-57
2023/10/10 02:00:58;;;;;;;;;8.67;8.33;;;;;;;;6488429;39;9505;-56
2023/10/10 02:07:14;;;;;;;;;12.00;11.00;;;;;;;;6487228;39;8952;-57
2023/10/10 02:13:18;;;;;;;;;9.50;9.50;;;;;;;;6487362;39;8860;-53
2023/10/10 02:19:32;;;;;;;;;12.00;11.00;;;;;;;;6487447;46;8864;-53
2023/10/10 02:25:39;;;;;;;;;10.25;8.25;;;;;;;;6487616;39;8927;-57
2023/10/10 02:31:56;;;;;;;;;11.25;11.25;;;;;;;;6487609;39;8885;-56
2023/10/10 02:38:06;;;;;;;;;9.25;9.25;;;;;;;;6488309;31;9566;-56
2023/10/10 02:44:09;;;;;;;;;13.33;12.33;;;;;;;;6486983;39;8912;-56
2023/10/10 02:50:38;;;;;;;;;13.25;10.00;;;;;;;;6487694;39;9096;-55
2023/10/10 02:56:43;;;;;;;;;12.00;11.00;;;;;;;;6486875;46;8931;-55
2023/10/10 05:26:57;;;;;;;;;13.00;13.00;;;;;;;;6491213;39;9463;-66
2023/10/10 05:33:04;;;;;;;;;11.00;10.75;;;;;;;;6493902;39;8806;-65
2023/10/10 05:39:22;;;;;;;;;12.25;10.00;;;;;;;;6492121;46;8960;-64
2023/10/10 05:45:31;;;;;;;;;13.00;13.00;;;;;;;;6492645;39;8886;-65
2023/10/10 05:51:40;;;;;;;;;16.75;13.00;;;;;;;;6491676;39;9553;-65
2023/10/10 05:57:48;;;;;;;;;11.75;11.50;;;;;;;;6492287;39;9001;-65
2023/10/10 06:03:52;;;;;;;;;16.25;13.75;;;;;;;;6490765;31;8959;-65
2023/10/10 06:09:59;;;;;;;;;18.00;13.00;;;;;;;;6489947;39;8957;-65
2023/10/10 06:16:12;;;;;;;;;15.75;15.75;;;;;;;;6490291;39;8930;-65
2023/10/10 06:22:18;;;;;;;;;18.00;16.67;;;;;;;;6489993;46;8955;-63
2023/10/10 06:28:35;;;;;;;;;19.33;16.67;;;;;;;;6489895;31;8936;-65
2023/10/10 06:34:49;;;;;;;;;15.00;13.75;;;;;;;;6488712;39;8946;-66
2023/10/10 06:41:11;;;;;;;;;19.00;16.33;;;;;;;;6487665;46;8940;-64
2023/10/10 06:47:21;;;;;;;;;20.00;16.67;;;;;;;;6490913;46;8885;-65
2023/10/10 06:53:36;;;;;;;;;20.33;19.00;;;;;;;;6429139;36;5001788;-67
2023/10/10 06:59:41;;;;;;;;;17.00;15.00;;;;;;;;6486035;39;8947;-66
2023/10/10 07:05:48;;;;;;;;;19.67;19.00;;;;;;;;6486986;39;9035;-66
2023/10/10 07:12:19;;;;;;;;;14.67;13.33;;;;;;;;6488201;31;9032;-66
2023/10/10 07:18:25;;;;;;;;;12.00;9.00;;;;;;;;6488066;39;8898;-64
2023/10/10 07:24:40;;;;;;;;;14.00;13.00;;;;;;;;6487747;39;8961;-64
2023/10/10 07:30:51;;;;;;;;;16.67;13.33;;;;;;;;6485620;39;8925;-65
2023/10/10 07:37:10;;;;;;;;;16.67;15.67;;;;;;;;6486349;39;8974;-65
2023/10/10 07:43:12;;;;;;;;;13.67;12.00;;;;;;;;6487411;39;8963;-63
2023/10/10 07:49:18;;;;;;;;;8.00;8.00;;;;;;;;6489231;39;8985;-64
2023/10/10 07:55:23;;;;;;;;;7.33;6.33;;;;;;;;6487985;39;8944;-64
2023/10/10 08:01:30;;;;;;;;;5.33;3.67;;;;;;;;6488719;46;8942;-64
2023/10/10 08:07:35;;;;;;;;;11.67;8.33;;;;;;;;6490274;39;8922;-64
2023/10/10 08:13:48;;;;;;;;;16.00;16.00;;;;;;;;6487203;31;8996;-64
2023/10/10 08:19:53;;;;;;;;;7.00;5.67;;;;;;;;6489493;31;9033;-66
2023/10/10 08:26:02;;;;;;;;;10.67;10.67;;;;;;;;6487786;39;8935;-65
2023/10/10 08:32:12;;;;;;;;;17.67;17.33;;;;;;;;6488613;39;9149;-65
2023/10/10 08:38:20;;;;;;;;;13.67;11.67;;;;;;;;6487827;31;8941;-65
2023/10/10 08:44:30;;;;;;;;;12.25;12.25;;;;;;;;6315752;31;10000149;-66
2023/10/10 08:50:34;;;;;;;;;14.00;14.00;;;;;;;;6487935;31;8930;-66
2023/10/10 08:57:10;;;;;;;;;10.33;10.33;;;;;;;;6488585;31;8929;-64
2023/10/10 09:03:14;;;;;;;;;9.00;9.00;;;;;;;;6487184;39;8992;-64
2023/10/10 09:09:33;;;;;;;;;18.33;17.00;;;;;;;;6489071;39;9027;-65
2023/10/10 09:15:36;;;;;;;;;15.67;14.00;;;;;;;;6485856;39;8967;-64
2023/10/10 09:21:55;;;;;;;;;12.33;8.33;;;;;;;;6488215;31;9094;-64
2023/10/10 09:28:08;;;;;;;;;11.00;9.33;;;;;;;;6487738;46;9011;-65
2023/10/10 09:34:22;;;;;;;;;7.00;7.00;;;;;;;;6486966;39;8941;-64
2023/10/10 09:40:33;;;;;;;;;12.67;11.00;;;;;;;;6485211;39;8968;-64
2023/10/10 09:53:21;;;;;;;;;16.00;14.00;;;;;;;;6488831;39;8936;-65
2023/10/10 09:59:32;;;;;;;;;22.00;21.00;;;;;;;;6488137;39;8941;-65
2023/10/10 10:05:42;;;;;;;;;6.00;5.00;;;;;;;;6484681;39;8945;-65
2023/10/10 10:12:30;;;;;;;;;10.33;9.00;;;;;;;;6485352;31;9036;-66
2023/10/10 10:18:44;;;;;;;;;20.00;20.00;;;;;;;;6485145;39;8950;-64
2023/10/10 10:25:21;;;;;;;;;6.67;6.67;;;;;;;;6484345;46;9030;-64
2023/10/10 10:31:36;;;;;;;;;13.67;12.00;;;;;;;;6485610;39;9674;-65
2023/10/10 10:37:42;;;;;;;;;13.67;13.00;;;;;;;;6481147;31;9042;-65
2023/10/10 10:43:50;;;;;;;;;6.67;6.67;;;;;;;;6483969;39;9622;-65
2023/10/10 10:49:54;;;;;;;;;10.00;9.33;;;;;;;;6485218;47;8956;-66
2023/10/10 11:02:36;;;;;;;;;7.00;7.00;;;;;;;;6484881;39;8941;-65
2023/10/10 11:09:09;;;;;;;;;5.33;4.33;;;;;;;;6483821;47;8931;-63
2023/10/10 11:15:16;;;;;;;;;5.67;4.33;;;;;;;;6484066;31;8957;-64
2023/10/10 11:21:27;;;;;;;;;9.00;9.00;;;;;;;;6484148;31;8911;-64
2023/10/10 11:28:03;;;;;;;;;6.67;6.33;;;;;;;;6483171;39;8957;-66
2023/10/10 11:34:42;;;;;;;;;11.00;11.00;;;;;;;;6485669;31;8906;-64
2023/10/10 11:41:08;;;;;;;;;9.00;9.00;;;;;;;;6484893;39;8905;-64
2023/10/10 11:47:25;;;;;;;;;10.00;8.00;;;;;;;;6484241;46;9041;-65
2023/10/10 11:53:30;;;;;;;;;8.33;8.33;;;;;;;;6485583;39;8933;-65
2023/10/10 11:59:41;;;;;;;;;9.67;9.67;;;;;;;;6485085;39;8938;-66
2023/10/10 12:05:53;;;;;;;;;6.00;6.00;;;;;;;;6486515;39;8953;-65
2023/10/10 12:12:02;;;;;;;;;8.33;7.33;;;;;;;;6484135;39;8933;-65
2023/10/10 12:18:14;;;;;;;;;4.67;4.67;;;;;;;;6485816;31;8918;-63
2023/10/10 12:24:24;;;;;;;;;6.33;5.67;;;;;;;;6486184;39;8901;-67
2023/10/10 12:30:30;;;;;;;;;10.33;8.67;;;;;;;;6484905;39;8917;-65
2023/10/10 12:36:38;;;;;;;;;12.33;9.33;;;;;;;;6486089;46;8940;-65
2023/10/10 12:43:56;;;;;;;;;10.33;10.33;;;;;;;;6484952;31;9059;-65
2023/10/10 12:50:28;;;;;;;;;23.00;20.33;;;;;;;;6485371;39;8947;-66
2023/10/10 12:56:55;;;;;;;;;18.00;18.00;;;;;;;;6484854;31;9587;-67
2023/10/10 13:03:10;;;;;;;;;27.67;24.33;;;;;;;;6482452;46;8973;-66
2023/10/10 13:09:16;;;;;;;;;55.67;44.00;;;;;;;;6483324;39;8965;-69
2023/10/10 13:15:19;;;;;;;;;15.67;14.00;;;;;;;;6482287;31;8914;-66
2023/10/10 13:21:26;;;;;;;;;41.00;35.67;;;;;;;;6482796;39;8903;-65
2023/10/10 13:27:38;;;;;;;;;13.67;12.67;;;;;;;;6483807;39;8946;-66
2023/10/10 13:33:42;;;;;;;;;15.00;12.33;;;;;;;;6481373;39;8949;-65
2023/10/10 13:39:55;;;;;;;;;16.67;15.67;;;;;;;;6482532;39;8992;-65
2023/10/10 13:46:02;;;;;;;;;6.67;6.00;;;;;;;;6484968;39;9019;-65
2023/10/10 13:52:12;;;;;;;;;8.00;7.67;;;;;;;;6484472;31;9097;-65
2023/10/10 13:58:19;;;;;;;;;10.33;10.00;;;;;;;;6485374;39;9033;-65
2023/10/10 14:04:24;;;;;;;;;14.00;14.00;;;;;;;;6483283;31;8988;-66
2023/10/10 14:10:43;;;;;;;;;12.00;11.33;;;;;;;;6484666;39;9035;-64
2023/10/10 14:16:46;;;;;;;;;19.00;13.33;;;;;;;;6484809;39;8946;-65
2023/10/10 14:22:55;;;;;;;;;30.00;24.00;;;;;;;;6484688;39;10052;-66
2023/10/10 14:29:06;;;;;;;;;17.67;17.00;;;;;;;;6482178;31;8929;-65
2023/10/10 14:35:15;;;;;;;;;32.67;29.33;;;;;;;;6484371;31;8891;-66
2023/10/10 14:41:38;;;;;;;;;19.67;15.33;;;;;;;;6486529;39;8881;-64
2023/10/10 14:47:56;;;;;;;;;8.33;8.33;;;;;;;;6486307;47;8938;-65
2023/10/10 14:54:17;;;;;;;;;9.67;8.67;;;;;;;;6487173;39;8883;-67
2023/10/10 15:00:31;;;;;;;;;13.67;10.67;;;;;;;;6485174;39;8907;-66
2023/10/10 15:06:45;;;;;;;;;10.67;9.33;;;;;;;;6486208;39;9030;-65
2023/10/10 15:13:00;;;;;;;;;12.67;12.67;;;;;;;;6486989;47;8949;-66
2023/10/10 15:19:27;;;;;;;;;15.33;15.33;;;;;;;;6486099;31;8897;-69
2023/10/10 15:25:34;;;;;;;;;11.00;9.00;;;;;;;;6486514;39;8955;-66
2023/10/10 15:31:51;;;;;;;;;9.67;9.67;;;;;;;;6488396;31;8918;-66
2023/10/10 15:38:00;;;;;;;;;6.33;4.00;;;;;;;;6486495;39;8931;-66
2023/10/10 15:44:21;;;;;;;;;10.00;10.00;;;;;;;;6486520;47;8869;-66
2023/10/10 15:50:31;;;;;;;;;12.00;9.67;;;;;;;;6486945;47;8866;-66
2023/10/10 15:56:46;;;;;;;;;9.67;8.33;;;;;;;;6485690;39;8992;-65
2023/10/10 16:03:06;;;;;;;;;5.33;5.33;;;;;;;;6486186;39;8886;-66
2023/10/10 16:15:56;;;;;;;;;8.00;7.00;;;;;;;;6487929;39;8889;-65
2023/10/10 16:22:04;;;;;;;;;7.33;7.33;;;;;;;;6487595;39;8913;-65
2023/10/10 16:28:08;;;;;;;;;5.00;2.67;;;;;;;;6489805;31;8874;-67
2023/10/10 16:34:16;;;;;;;;;10.00;8.00;;;;;;;;6488628;39;9077;-66
2023/10/10 16:40:35;;;;;;;;;7.00;6.00;;;;;;;;6487997;31;8862;-66
2023/10/10 16:46:47;;;;;;;;;5.00;4.00;;;;;;;;6488620;46;8932;-66
2023/10/10 16:52:52;;;;;;;;;5.33;4.67;;;;;;;;6487040;46;9005;-65
2023/10/10 16:59:22;;;;;;;;;4.00;4.00;;;;;;;;6487416;31;8925;-66
2023/10/10 17:05:36;;;;;;;;;7.67;6.67;;;;;;;;6488184;39;9804;-67
2023/10/10 17:11:52;;;;;;;;;8.67;7.67;;;;;;;;6488211;39;8969;-65
2023/10/10 17:18:00;;;;;;;;;4.00;4.00;;;;;;;;6488534;46;8837;-67
2023/10/10 17:24:07;;;;;;;;;7.00;4.00;;;;;;;;6487517;39;8920;-66
2023/10/10 17:30:14;;;;;;;;;7.00;4.00;;;;;;;;6488513;46;8853;-65
2023/10/10 17:36:22;;;;;;;;;7.00;5.33;;;;;;;;6487991;39;9536;-65
2023/10/10 17:42:36;;;;;;;;;17.33;12.00;;;;;;;;6489185;31;8865;-68
2023/10/10 17:48:53;;;;;;;;;19.33;11.67;;;;;;;;6488028;39;8870;-69
2023/10/10 17:55:03;;;;;;;;;7.67;6.00;;;;;;;;6488395;39;8909;-67
2023/10/10 18:01:10;;;;;;;;;6.67;6.00;;;;;;;;6488284;31;8886;-67
2023/10/10 18:07:21;;;;;;;;;6.00;4.67;;;;;;;;6487941;46;8969;-67
2023/10/10 18:13:27;;;;;;;;;11.00;7.00;;;;;;;;6487795;39;8889;-67
2023/10/10 18:19:40;;;;;;;;;3.67;3.67;;;;;;;;6487628;39;8937;-67
2023/10/10 18:25:44;;;;;;;;;7.00;6.00;;;;;;;;6487776;46;8829;-68
2023/10/10 18:31:50;;;;;;;;;4.00;4.00;;;;;;;;6488235;39;8881;-68
2023/10/10 18:37:56;;;;;;;;;2.00;2.00;;;;;;;;6486085;46;8862;-68
2023/10/10 18:44:05;;;;;;;;;6.33;6.33;;;;;;;;6488022;46;8904;-68
2023/10/10 18:50:14;;;;;;;;;8.33;5.00;;;;;;;;6487761;39;8874;-67
2023/10/10 18:56:27;;;;;;;;;4.67;4.67;;;;;;;;6487623;47;8893;-66
2023/10/10 19:02:31;;;;;;;;;5.33;4.00;;;;;;;;6487130;39;8952;-67
2023/10/10 19:08:44;;;;;;;;;3.67;3.67;;;;;;;;6487520;39;9580;-67
2023/10/10 19:14:47;;;;;;;;;6.33;4.00;;;;;;;;6487289;31;8976;-66
2023/10/10 19:20:53;;;;;;;;;6.33;4.00;;;;;;;;6487552;39;8846;-67
2023/10/10 19:26:59;;;;;;;;;3.00;3.00;;;;;;;;6487160;39;9390;-66
2023/10/10 19:33:04;;;;;;;;;7.25;7.00;;;;;;;;6486864;31;8948;-66
2023/10/10 19:39:09;;;;;;;;;7.75;6.00;;;;;;;;6487202;39;8858;-66
2023/10/10 19:45:22;;;;;;;;;6.50;5.00;;;;;;;;6489771;39;8874;-66
2023/10/10 19:51:31;;;;;;;;;11.67;6.67;;;;;;;;6488695;39;9600;-67
2023/10/10 19:57:37;;;;;;;;;7.50;7.50;;;;;;;;6489860;31;8964;-64
2023/10/10 20:03:42;;;;;;;;;8.00;6.00;;;;;;;;6488373;39;8889;-66
2023/10/10 20:09:45;;;;;;;;;3.50;3.50;;;;;;;;6490584;39;9587;-66
2023/10/10 20:15:55;;;;;;;;;6.00;3.75;;;;;;;;6490032;39;8997;-65
2023/10/10 20:22:02;;;;;;;;;0.50;0.50;;;;;;;;6488715;46;8947;-66
2023/10/10 20:28:13;;;;;;;;;4.25;4.00;;;;;;;;6488890;39;9150;-65
2023/10/10 20:34:18;;;;;;;;;5.50;5.50;;;;;;;;6487914;39;8886;-67
2023/10/10 20:40:31;;;;;;;;;6.25;6.25;;;;;;;;6487628;46;8862;-66
2023/10/10 20:46:36;;;;;;;;;4.50;4.50;;;;;;;;6488375;39;8834;-66
2023/10/10 20:52:43;;;;;;;;;6.00;6.00;;;;;;;;6307421;39;10000613;-66
2023/10/10 20:58:49;;;;;;;;;6.25;6.00;;;;;;;;6488767;31;9022;-66
2023/10/10 21:04:53;;;;;;;;;5.75;5.75;;;;;;;;6487525;31;8838;-65
2023/10/10 21:10:59;;;;;;;;;3.25;3.25;;;;;;;;6489255;46;9040;-66
2023/10/10 21:17:05;;;;;;;;;10.50;8.50;;;;;;;;6489012;31;8928;-66
2023/10/10 21:23:14;;;;;;;;;3.50;2.75;;;;;;;;6488639;39;8861;-65
2023/10/10 21:29:20;;;;;;;;;6.50;6.50;;;;;;;;6487451;46;8925;-65
2023/10/10 21:35:30;;;;;;;;;5.25;5.25;;;;;;;;6488316;39;8922;-66
2023/10/10 21:41:45;;;;;;;;;7.00;7.00;;;;;;;;6488443;46;8873;-66
2023/10/10 21:48:09;;;;;;;;;9.25;5.00;;;;;;;;6488214;31;8976;-65
2023/10/10 21:54:22;;;;;;;;;5.75;3.75;;;;;;;;6487929;39;8948;-65
2023/10/10 22:06:35;;;;;;;;;10.00;8.00;;;;;;;;6486311;39;8952;-67
2023/10/10 22:12:42;;;;;;;;;11.00;9.50;;;;;;;;6488052;39;8829;-66
2023/10/10 22:18:47;;;;;;;;;12.75;10.25;;;;;;;;6487877;31;8994;-65
2023/10/10 22:24:52;;;;;;;;;10.00;8.50;;;;;;;;6489236;31;8818;-65
2023/10/10 22:30:59;;;;;;;;;9.00;6.75;;;;;;;;6487106;46;8944;-66
2023/10/10 22:37:02;;;;;;;;;7.00;7.00;;;;;;;;6487944;46;8943;-66
2023/10/10 22:43:15;;;;;;;;;7.25;6.00;;;;;;;;6486628;46;8901;-65
2023/10/10 22:49:19;;;;;;;;;9.00;8.50;;;;;;;;6488516;39;8842;-65
2023/10/10 22:55:27;;;;;;;;;6.25;5.50;;;;;;;;6486855;31;9608;-66
2023/10/10 23:01:32;;;;;;;;;8.50;7.75;;;;;;;;6487427;31;9097;-65
2023/10/10 23:07:36;;;;;;;;;10.75;9.00;;;;;;;;6488140;39;8889;-67
2023/10/10 23:13:46;;;;;;;;;6.50;6.50;;;;;;;;6487761;39;8980;-65
2023/10/10 23:19:50;;;;;;;;;10.25;9.75;;;;;;;;6488991;46;8905;-65
2023/10/10 23:25:54;;;;;;;;;11.00;10.50;;;;;;;;6488060;46;8826;-65
2023/10/10 23:32:02;;;;;;;;;11.00;9.25;;;;;;;;6489311;39;8953;-66
2023/10/10 23:38:06;;;;;;;;;11.75;11.00;;;;;;;;6489341;39;8888;-65
2023/10/10 23:44:13;;;;;;;;;8.25;8.25;;;;;;;;6489699;31;8865;-66
2023/10/10 23:50:22;;;;;;;;;13.50;11.50;;;;;;;;6489653;31;8949;-66
2023/10/10 23:56:25;;;;;;;;;10.25;7.50;;;;;;;;6487656;39;8906;-66
